createdAt,value
2018-09-16T00:00:25.466Z,6.47
2018-09-16T00:02:53.581Z,6.50
2018-09-16T00:05:21.761Z,6.83
2018-09-16T00:07:49.857Z,7.40
2018-09-16T00:10:17.928Z,6.53
2018-09-16T00:12:46.029Z,5.60
2018-09-16T00:15:14.098Z,5.90
2018-09-16T00:17:42.187Z,7.57
2018-09-16T00:20:10.338Z,5.97
2018-09-16T00:22:38.432Z,6.57
2018-09-16T00:25:06.539Z,7.07
2018-09-16T00:27:34.745Z,5.90
2018-09-16T00:30:02.834Z,6.73
2018-09-16T00:32:36.512Z,6.73
2018-09-16T00:35:04.682Z,7.50
2018-09-16T00:37:32.792Z,6.67
2018-09-16T00:40:00.925Z,7.20
2018-09-16T00:42:29.037Z,6.80
2018-09-16T00:44:57.137Z,7.40
2018-09-16T00:47:25.242Z,8.03
2018-09-16T00:49:53.362Z,6.63
2018-09-16T00:52:21.458Z,7.07
2018-09-16T00:54:49.567Z,7.00
2018-09-16T00:57:17.695Z,6.20
2018-09-16T00:59:45.793Z,6.20
2018-09-16T01:02:13.886Z,7.00
2018-09-16T01:04:41.979Z,7.57
2018-09-16T01:07:10.082Z,7.43
2018-09-16T01:09:38.180Z,6.63
2018-09-16T01:12:06.285Z,7.33
2018-09-16T01:14:34.397Z,7.30
2018-09-16T01:17:02.481Z,7.23
2018-09-16T01:19:30.602Z,6.73
2018-09-16T01:21:58.712Z,6.57
2018-09-16T01:24:26.826Z,6.17
2018-09-16T01:26:54.951Z,6.33
2018-09-16T01:29:23.042Z,6.40
2018-09-16T01:31:51.134Z,6.20
2018-09-16T01:34:19.245Z,6.10
2018-09-16T01:36:47.323Z,6.70
2018-09-16T01:39:15.435Z,6.00
2018-09-16T01:41:43.519Z,7.10
2018-09-16T01:44:11.625Z,5.80
2018-09-16T01:46:39.715Z,6.60
2018-09-16T01:49:07.814Z,6.90
2018-09-16T01:51:35.908Z,6.83
2018-09-16T01:54:04.018Z,6.60
2018-09-16T01:56:32.116Z,7.30
2018-09-16T01:59:00.227Z,7.90
2018-09-16T02:01:28.319Z,7.43
2018-09-16T02:03:56.434Z,7.90
2018-09-16T02:06:24.522Z,7.00
2018-09-16T02:08:52.627Z,6.93
2018-09-16T02:11:20.818Z,7.93
2018-09-16T02:13:49.306Z,7.20
2018-09-16T02:16:17.402Z,6.67
2018-09-16T02:18:45.498Z,5.80
2018-09-16T02:21:13.598Z,5.57
2018-09-16T02:23:41.691Z,5.90
2018-09-16T02:26:09.799Z,7.10
2018-09-16T02:28:37.898Z,6.20
2018-09-16T02:31:06.083Z,7.00
2018-09-16T02:33:34.167Z,6.93
2018-09-16T02:36:02.272Z,7.40
2018-09-16T02:38:30.376Z,7.80
2018-09-16T02:40:58.482Z,7.23
2018-09-16T02:43:26.636Z,7.50
2018-09-16T02:45:54.713Z,6.83
2018-09-16T02:48:22.815Z,7.43
2018-09-16T02:50:50.911Z,7.33
2018-09-16T02:53:19.059Z,8.20
2018-09-16T02:55:47.169Z,8.30
2018-09-16T02:58:15.253Z,8.20
2018-09-16T03:00:43.368Z,7.70
2018-09-16T03:03:11.465Z,8.07
2018-09-16T03:05:44.819Z,7.50
2018-09-16T03:08:12.919Z,7.90
2018-09-16T03:10:41.050Z,8.33
2018-09-16T03:13:09.134Z,7.70
2018-09-16T03:15:37.237Z,7.90
2018-09-16T03:18:05.338Z,7.93
2018-09-16T03:20:33.581Z,7.90
2018-09-16T03:23:01.679Z,7.70
2018-09-16T03:25:30.046Z,8.40
2018-09-16T03:27:58.299Z,7.57
2018-09-16T03:30:26.418Z,8.17
2018-09-16T03:32:54.527Z,9.20
2018-09-16T03:35:22.643Z,9.53
2018-09-16T03:37:50.751Z,8.20
2018-09-16T03:40:18.876Z,8.73
2018-09-16T03:42:46.951Z,8.27
2018-09-16T03:45:15.051Z,8.10
2018-09-16T03:47:43.140Z,9.03
2018-09-16T03:50:11.242Z,8.93
2018-09-16T03:52:39.343Z,10.33
2018-09-16T03:55:07.449Z,8.90
2018-09-16T03:57:35.552Z,8.33
2018-09-16T04:00:03.647Z,8.33
2018-09-16T04:02:31.740Z,8.10
2018-09-16T04:04:59.835Z,7.50
2018-09-16T04:07:27.958Z,8.67
2018-09-16T04:09:56.057Z,7.40
2018-09-16T04:12:24.175Z,7.57
2018-09-16T04:14:52.282Z,8.13
2018-09-16T04:17:20.582Z,8.00
2018-09-16T04:19:48.703Z,7.00
2018-09-16T04:22:16.818Z,7.30
2018-09-16T04:24:44.962Z,7.87
2018-09-16T04:27:13.068Z,9.20
2018-09-16T04:29:41.528Z,7.83
2018-09-16T04:32:09.638Z,8.10
2018-09-16T04:34:37.837Z,8.70
2018-09-16T04:37:05.960Z,8.80
2018-09-16T04:39:34.064Z,8.50
2018-09-16T04:42:02.178Z,8.07
2018-09-16T04:44:30.311Z,8.20
2018-09-16T04:46:58.428Z,7.67
2018-09-16T04:49:26.535Z,8.27
2018-09-16T04:51:54.705Z,7.53
2018-09-16T04:54:22.816Z,8.50
2018-09-16T04:56:50.955Z,8.10
2018-09-16T04:59:19.071Z,7.87
2018-09-16T05:01:47.183Z,8.33
2018-09-16T05:04:15.296Z,8.20
2018-09-16T05:06:43.399Z,8.93
2018-09-16T05:09:11.853Z,8.13
2018-09-16T05:11:39.967Z,8.77
2018-09-16T05:14:08.082Z,9.00
2018-09-16T05:16:36.797Z,8.87
2018-09-16T05:19:05.005Z,9.70
2018-09-16T05:21:33.125Z,8.33
2018-09-16T05:24:01.259Z,8.60
2018-09-16T05:26:29.384Z,8.43
2018-09-16T05:28:57.494Z,8.50
2018-09-16T05:31:25.643Z,7.77
2018-09-16T05:33:53.747Z,8.97
2018-09-16T05:36:21.864Z,8.67
2018-09-16T05:38:49.969Z,8.00
2018-09-16T05:41:18.131Z,9.47
2018-09-16T05:43:46.335Z,8.17
2018-09-16T05:46:14.556Z,9.50
2018-09-16T05:48:42.733Z,9.17
2018-09-16T05:51:10.923Z,8.57
2018-09-16T05:53:39.077Z,8.13
2018-09-16T05:56:07.144Z,9.23
2018-09-16T05:58:35.250Z,9.10
2018-09-16T06:01:03.371Z,8.70
2018-09-16T06:03:31.486Z,9.77
2018-09-16T06:05:59.635Z,8.77
2018-09-16T06:08:27.742Z,9.87
2018-09-16T06:10:55.891Z,9.07
2018-09-16T06:13:24.075Z,9.27
2018-09-16T06:15:52.168Z,9.63
2018-09-16T06:18:20.269Z,9.70
2018-09-16T06:20:48.371Z,8.47
2018-09-16T06:23:16.475Z,9.97
2018-09-16T06:25:44.584Z,9.37
2018-09-16T06:28:12.692Z,8.60
2018-09-16T06:30:40.787Z,8.60
2018-09-16T06:33:08.918Z,8.87
2018-09-16T06:35:37.048Z,10.20
2018-09-16T06:38:05.167Z,10.73
2018-09-16T06:40:33.261Z,11.17
2018-09-16T06:43:01.375Z,12.27
2018-09-16T06:45:29.483Z,10.87
2018-09-16T06:47:57.596Z,12.47
2018-09-16T06:50:25.799Z,10.37
2018-09-16T06:52:53.975Z,11.30
2018-09-16T06:55:22.122Z,11.33
2018-09-16T06:57:50.291Z,10.33
2018-09-16T07:00:18.402Z,9.70
2018-09-16T07:02:46.575Z,10.67
2018-09-16T07:05:14.663Z,8.97
2018-09-16T07:07:42.813Z,9.40
2018-09-16T07:10:11.767Z,8.60
2018-09-16T07:12:39.932Z,9.60
2018-09-16T07:15:08.058Z,8.20
2018-09-16T07:17:36.177Z,8.60
2018-09-16T07:20:04.716Z,8.20
2018-09-16T07:22:32.840Z,7.80
2018-09-16T07:25:00.934Z,7.90
2018-09-16T07:27:29.092Z,7.43
2018-09-16T07:29:57.161Z,6.57
2018-09-16T07:32:25.286Z,6.87
2018-09-16T07:34:53.415Z,6.90
2018-09-16T07:37:21.539Z,6.23
2018-09-16T07:39:49.651Z,6.90
2018-09-16T07:42:17.787Z,6.17
2018-09-16T07:44:45.904Z,6.27
2018-09-16T07:47:14.284Z,6.20
2018-09-16T07:49:42.346Z,6.30
2018-09-16T07:52:10.462Z,5.10
2018-09-16T07:54:38.580Z,5.83
2018-09-16T07:57:06.691Z,5.60
2018-09-16T07:59:34.812Z,6.10
2018-09-16T08:02:02.952Z,6.03
2018-09-16T08:04:31.155Z,5.83
2018-09-16T08:06:59.262Z,6.10
2018-09-16T08:09:27.442Z,6.10
2018-09-16T08:11:55.543Z,5.40
2018-09-16T08:14:23.639Z,6.10
2018-09-16T08:16:51.731Z,6.03
2018-09-16T08:19:19.843Z,4.83
2018-09-16T08:21:47.964Z,5.27
2018-09-16T08:24:16.121Z,5.53
2018-09-16T08:26:44.202Z,5.13
2018-09-16T08:29:12.316Z,5.60
2018-09-16T08:31:40.474Z,6.23
2018-09-16T08:34:08.566Z,4.63
2018-09-16T08:36:36.656Z,5.33
2018-09-16T08:39:07.529Z,6.07
2018-09-16T08:41:35.647Z,4.90
2018-09-16T08:44:03.735Z,5.90
2018-09-16T08:46:31.842Z,5.60
2018-09-16T08:48:59.942Z,5.03
2018-09-16T08:51:28.030Z,4.37
2018-09-16T08:53:56.208Z,4.17
2018-09-16T08:56:24.299Z,4.30
2018-09-16T08:58:52.430Z,5.50
2018-09-16T09:01:20.519Z,4.60
2018-09-16T09:03:48.647Z,4.20
2018-09-16T09:06:16.755Z,4.17
2018-09-16T09:08:44.948Z,4.23
2018-09-16T09:11:13.050Z,4.30
2018-09-16T09:13:41.390Z,3.40
2018-09-16T09:16:09.499Z,4.67
2018-09-16T09:18:37.656Z,4.27
2018-09-16T09:21:05.774Z,4.20
2018-09-16T09:23:33.987Z,3.33
2018-09-16T09:26:02.107Z,3.63
2018-09-16T09:28:30.235Z,2.90
2018-09-16T09:30:58.335Z,3.77
2018-09-16T09:33:26.658Z,4.00
2018-09-16T09:35:54.783Z,3.50
2018-09-16T09:38:22.907Z,3.00
2018-09-16T09:40:51.040Z,3.87
2018-09-16T09:43:19.166Z,4.37
2018-09-16T09:45:47.307Z,3.20
2018-09-16T09:48:15.440Z,3.23
2018-09-16T09:50:43.577Z,3.63
2018-09-16T09:53:11.688Z,3.33
2018-09-16T09:55:39.822Z,3.20
2018-09-16T09:58:07.934Z,3.80
2018-09-16T10:00:41.602Z,2.70
2018-09-16T10:03:09.720Z,2.10
2018-09-16T10:05:37.834Z,2.70
2018-09-16T10:08:06.034Z,2.20
2018-09-16T10:10:34.163Z,3.50
2018-09-16T10:13:02.264Z,2.13
2018-09-16T10:15:30.450Z,2.80
2018-09-16T10:17:58.563Z,3.13
2018-09-16T10:20:26.676Z,2.53
2018-09-16T10:22:54.792Z,2.60
2018-09-16T10:25:22.944Z,2.80
2018-09-16T10:27:51.035Z,2.77
2018-09-16T10:30:19.202Z,3.30
2018-09-16T10:32:47.393Z,2.97
2018-09-16T10:35:15.521Z,2.87
2018-09-16T10:37:43.660Z,2.00
2018-09-16T10:40:12.136Z,2.13
2018-09-16T10:42:40.346Z,2.80
2018-09-16T10:45:08.466Z,2.67
2018-09-16T10:47:36.583Z,2.27
2018-09-16T10:50:04.713Z,2.67
2018-09-16T10:52:32.806Z,3.00
2018-09-16T10:55:01.019Z,2.70
2018-09-16T10:57:29.207Z,2.80
2018-09-16T10:59:57.318Z,2.47
2018-09-16T11:02:25.601Z,2.27
2018-09-16T11:04:53.787Z,2.40
2018-09-16T11:07:21.927Z,3.03
2018-09-16T11:09:50.088Z,2.20
2018-09-16T11:12:18.810Z,2.70
2018-09-16T11:14:47.231Z,2.17
2018-09-16T11:17:15.505Z,2.27
2018-09-16T11:19:43.651Z,2.90
2018-09-16T11:22:11.935Z,2.90
2018-09-16T11:24:40.320Z,2.30
2018-09-16T11:27:08.444Z,1.97
2018-09-16T11:29:36.558Z,2.20
2018-09-16T11:32:04.694Z,2.53
2018-09-16T11:34:32.813Z,2.50
2018-09-16T11:37:01.189Z,2.47
2018-09-16T11:39:29.327Z,2.37
2018-09-16T11:41:57.458Z,2.60
2018-09-16T11:44:25.564Z,1.60
2018-09-16T11:46:53.743Z,2.00
2018-09-16T11:49:21.854Z,1.87
2018-09-16T11:51:49.993Z,2.17
2018-09-16T11:54:18.103Z,2.10
2018-09-16T11:56:46.222Z,1.90
2018-09-16T11:59:14.341Z,1.87
2018-09-16T12:01:42.447Z,1.57
2018-09-16T12:04:10.572Z,1.83
2018-09-16T12:06:38.756Z,1.80
2018-09-16T12:09:08.077Z,1.50
2018-09-16T12:11:36.229Z,1.40
2018-09-16T12:14:04.313Z,2.43
2018-09-16T12:16:32.721Z,2.07
2018-09-16T12:19:00.815Z,2.20
2018-09-16T12:21:28.902Z,2.10
2018-09-16T12:23:57.006Z,2.20
2018-09-16T12:26:25.115Z,1.90
2018-09-16T12:28:53.224Z,1.70
2018-09-16T12:31:21.338Z,2.40
2018-09-16T12:33:49.512Z,1.60
2018-09-16T12:36:17.622Z,2.13
2018-09-16T12:38:45.723Z,2.53
2018-09-16T12:41:13.831Z,1.63
2018-09-16T12:43:41.926Z,1.90
2018-09-16T12:46:10.019Z,2.00
2018-09-16T12:48:38.146Z,2.03
2018-09-16T12:51:06.230Z,2.00
2018-09-16T12:53:34.334Z,1.90
2018-09-16T12:56:02.439Z,1.90
2018-09-16T12:58:30.550Z,1.93
2018-09-16T13:00:58.652Z,2.20
2018-09-16T13:03:26.801Z,1.40
2018-09-16T13:05:54.895Z,1.47
2018-09-16T13:08:23.003Z,1.77
2018-09-16T13:10:51.139Z,1.57
2018-09-16T13:13:19.376Z,1.23
2018-09-16T13:15:47.444Z,1.40
2018-09-16T13:18:15.561Z,1.60
2018-09-16T13:20:43.679Z,1.50
2018-09-16T13:23:11.803Z,1.90
2018-09-16T13:25:39.922Z,1.20
2018-09-16T13:28:08.047Z,1.50
2018-09-16T13:30:36.171Z,1.20
2018-09-16T13:33:04.302Z,1.70
2018-09-16T13:35:32.423Z,1.43
2018-09-16T13:38:00.538Z,1.50
2018-09-16T13:40:28.646Z,1.53
2018-09-16T13:42:56.763Z,1.40
2018-09-16T13:45:25.125Z,1.80
2018-09-16T13:47:53.247Z,2.07
2018-09-16T13:50:21.360Z,1.47
2018-09-16T13:52:49.491Z,2.10
2018-09-16T13:55:17.612Z,1.57
2018-09-16T13:57:45.751Z,1.80
2018-09-16T14:00:13.866Z,1.93
2018-09-16T14:02:42.036Z,1.73
2018-09-16T14:05:10.151Z,1.40
2018-09-16T14:07:38.276Z,1.70
2018-09-16T14:10:06.460Z,1.60
2018-09-16T14:12:34.591Z,2.30
2018-09-16T14:15:02.719Z,1.60
2018-09-16T14:17:30.831Z,1.37
2018-09-16T14:19:58.945Z,1.80
2018-09-16T14:22:27.107Z,1.47
2018-09-16T14:24:55.182Z,1.63
2018-09-16T14:27:23.305Z,1.60
2018-09-16T14:29:51.401Z,1.80
2018-09-16T14:32:19.532Z,1.60
2018-09-16T14:34:47.626Z,1.80
2018-09-16T14:37:15.846Z,1.83
2018-09-16T14:39:44.056Z,1.93
2018-09-16T14:42:12.164Z,1.80
2018-09-16T14:44:40.336Z,1.90
2018-09-16T14:47:08.796Z,1.30
2018-09-16T14:49:36.911Z,1.60
2018-09-16T14:52:05.043Z,1.40
2018-09-16T14:54:33.164Z,1.33
2018-09-16T14:57:01.290Z,1.53
2018-09-16T14:59:29.400Z,1.70
2018-09-16T15:01:57.501Z,1.67
2018-09-16T15:04:25.619Z,1.63
2018-09-16T15:06:53.715Z,1.53
2018-09-16T15:09:21.810Z,1.70
2018-09-16T15:11:49.961Z,1.80
2018-09-16T15:14:18.231Z,1.60
2018-09-16T15:16:46.548Z,1.53
2018-09-16T15:19:14.714Z,2.93
2018-09-16T15:21:42.836Z,1.87
2018-09-16T15:24:10.968Z,1.60
2018-09-16T15:26:39.098Z,1.83
2018-09-16T15:29:07.242Z,1.77
2018-09-16T15:31:35.352Z,1.63
2018-09-16T15:34:03.488Z,2.40
2018-09-16T15:36:31.632Z,2.07
2018-09-16T15:38:59.758Z,1.90
2018-09-16T15:41:28.042Z,1.67
2018-09-16T15:43:56.239Z,1.70
2018-09-16T15:46:24.355Z,2.37
2018-09-16T15:48:52.562Z,1.47
2018-09-16T15:51:20.679Z,1.77
2018-09-16T15:53:48.810Z,2.10
2018-09-16T15:56:16.922Z,1.47
2018-09-16T15:58:45.032Z,1.50
2018-09-16T16:01:13.138Z,1.93
2018-09-16T16:03:41.359Z,2.13
2018-09-16T16:06:09.461Z,1.63
2018-09-16T16:08:37.570Z,1.80
2018-09-16T16:11:05.684Z,2.00
2018-09-16T16:13:33.811Z,1.53
2018-09-16T16:16:01.957Z,1.90
2018-09-16T16:18:30.083Z,1.80
2018-09-16T16:20:58.189Z,2.17
2018-09-16T16:23:26.333Z,2.07
2018-09-16T16:25:54.496Z,1.37
2018-09-16T16:28:22.601Z,1.47
2018-09-16T16:30:50.889Z,2.00
2018-09-16T16:33:19.031Z,1.67
2018-09-16T16:35:47.166Z,1.47
2018-09-16T16:38:15.256Z,1.80
2018-09-16T16:40:43.435Z,1.77
2018-09-16T16:43:11.548Z,1.73
2018-09-16T16:45:39.654Z,1.60
2018-09-16T16:48:07.763Z,1.43
2018-09-16T16:50:35.897Z,1.73
2018-09-16T16:53:04.007Z,1.90
2018-09-16T16:55:32.220Z,2.10
2018-09-16T16:58:00.330Z,2.07
2018-09-16T17:00:28.440Z,1.63
2018-09-16T17:02:56.549Z,1.80
2018-09-16T17:05:24.671Z,1.53
2018-09-16T17:07:52.807Z,1.60
2018-09-16T17:10:21.154Z,1.90
2018-09-16T17:12:49.263Z,1.87
2018-09-16T17:15:17.466Z,1.50
2018-09-16T17:17:45.567Z,2.00
2018-09-16T17:20:13.722Z,2.33
2018-09-16T17:22:41.845Z,1.60
2018-09-16T17:25:10.051Z,1.60
2018-09-16T17:27:38.245Z,1.60
2018-09-16T17:30:06.346Z,1.97
2018-09-16T17:32:34.459Z,1.70
2018-09-16T17:35:02.644Z,2.13
2018-09-16T17:37:30.774Z,1.70
2018-09-16T17:39:58.930Z,1.53
2018-09-16T17:42:27.042Z,1.70
2018-09-16T17:44:55.166Z,1.90
2018-09-16T17:47:23.288Z,2.23
2018-09-16T17:49:51.416Z,2.10
2018-09-16T17:52:19.517Z,1.73
2018-09-16T17:54:47.707Z,1.90
2018-09-16T17:57:15.818Z,1.90
2018-09-16T17:59:43.940Z,1.80
2018-09-16T18:02:12.048Z,1.63
2018-09-16T18:04:40.175Z,2.00
2018-09-16T18:07:08.299Z,2.27
2018-09-16T18:09:36.407Z,2.10
2018-09-16T18:12:04.599Z,2.00
2018-09-16T18:14:32.728Z,2.17
2018-09-16T18:17:00.944Z,2.30
2018-09-16T18:19:29.141Z,2.20
2018-09-16T18:21:57.257Z,2.40
2018-09-16T18:24:25.366Z,1.93
2018-09-16T18:26:53.511Z,2.30
2018-09-16T18:29:21.681Z,2.03
2018-09-16T18:31:49.803Z,2.13
2018-09-16T18:34:17.920Z,2.07
2018-09-16T18:36:46.390Z,2.70
2018-09-16T18:39:14.514Z,2.23
2018-09-16T18:41:42.639Z,2.67
2018-09-16T18:44:10.730Z,2.40
2018-09-16T18:46:38.839Z,2.20
2018-09-16T18:49:06.951Z,3.20
2018-09-16T18:51:35.085Z,2.33
2018-09-16T18:54:03.224Z,2.70
2018-09-16T18:56:31.406Z,2.60
2018-09-16T18:58:59.527Z,2.77
2018-09-16T19:01:27.648Z,2.83
2018-09-16T19:03:55.888Z,2.53
2018-09-16T19:06:23.968Z,2.80
2018-09-16T19:08:52.118Z,2.73
2018-09-16T19:11:20.332Z,2.50
2018-09-16T19:13:48.450Z,2.57
2018-09-16T19:16:16.584Z,2.87
2018-09-16T19:18:44.690Z,2.87
2018-09-16T19:21:12.828Z,2.30
2018-09-16T19:23:40.959Z,3.23
2018-09-16T19:26:09.064Z,2.70
2018-09-16T19:28:37.200Z,2.70
2018-09-16T19:31:05.324Z,2.37
2018-09-16T19:33:33.457Z,2.50
2018-09-16T19:36:01.554Z,2.67
2018-09-16T19:38:29.685Z,3.00
2018-09-16T19:40:57.808Z,3.10
2018-09-16T19:43:25.927Z,2.70
2018-09-16T19:45:54.068Z,2.93
2018-09-16T19:48:22.239Z,2.90
2018-09-16T19:50:50.355Z,2.60
2018-09-16T19:53:18.492Z,2.67
2018-09-16T19:55:46.599Z,3.10
2018-09-16T19:58:14.713Z,3.10
2018-09-16T20:00:42.815Z,3.17
2018-09-16T20:03:10.931Z,3.00
2018-09-16T20:05:39.040Z,4.23
2018-09-16T20:08:07.168Z,3.40
2018-09-16T20:10:35.275Z,3.40
2018-09-16T20:13:03.393Z,3.30
2018-09-16T20:15:31.500Z,2.70
2018-09-16T20:17:59.624Z,3.00
2018-09-16T20:20:27.727Z,2.90
2018-09-16T20:22:55.862Z,3.23
2018-09-16T20:25:24.237Z,5.23
2018-09-16T20:27:52.379Z,3.07
2018-09-16T20:30:20.503Z,3.10
2018-09-16T20:32:48.623Z,4.13
2018-09-16T20:35:16.831Z,4.10
2018-09-16T20:37:44.966Z,4.00
2018-09-16T20:40:13.101Z,3.03
2018-09-16T20:42:41.232Z,3.20
2018-09-16T20:45:09.450Z,3.00
2018-09-16T20:47:37.658Z,3.30
2018-09-16T20:50:05.963Z,3.43
2018-09-16T20:52:34.136Z,3.27
2018-09-16T20:55:02.182Z,3.20
2018-09-16T20:57:30.738Z,3.20
2018-09-16T20:59:58.860Z,3.07
2018-09-16T21:02:26.973Z,3.00
2018-09-16T21:04:55.367Z,2.63
2018-09-16T21:07:23.488Z,2.90
2018-09-16T21:09:51.843Z,3.10
2018-09-16T21:12:19.982Z,3.30
2018-09-16T21:14:48.112Z,2.73
2018-09-16T21:17:16.221Z,3.10
2018-09-16T21:19:44.409Z,2.67
2018-09-16T21:22:12.484Z,2.90
2018-09-16T21:24:40.607Z,3.00
2018-09-16T21:27:08.739Z,4.00
2018-09-16T21:29:36.848Z,3.20
2018-09-16T21:32:04.988Z,3.83
2018-09-16T21:34:33.164Z,3.17
2018-09-16T21:37:01.274Z,2.90
2018-09-16T21:39:29.414Z,3.47
2018-09-16T21:41:57.587Z,3.73
2018-09-16T21:44:25.706Z,3.40
2018-09-16T21:46:53.858Z,2.97
2018-09-16T21:49:22.151Z,3.57
2018-09-16T21:51:50.263Z,2.90
2018-09-16T21:54:18.371Z,3.20
2018-09-16T21:56:46.495Z,2.77
2018-09-16T21:59:14.607Z,3.13
2018-09-16T22:01:42.747Z,3.20
2018-09-16T22:04:10.858Z,2.87
2018-09-16T22:06:38.994Z,2.83
2018-09-16T22:09:08.526Z,3.57
2018-09-16T22:11:36.666Z,3.17
2018-09-16T22:14:04.775Z,3.00
2018-09-16T22:16:33.007Z,3.17
2018-09-16T22:19:01.142Z,3.60
2018-09-16T22:21:29.256Z,3.50
2018-09-16T22:23:57.395Z,3.30
2018-09-16T22:26:25.511Z,3.60
2018-09-16T22:28:53.656Z,2.93
2018-09-16T22:31:21.767Z,2.80
2018-09-16T22:33:49.878Z,3.37
2018-09-16T22:36:17.993Z,3.13
2018-09-16T22:38:46.228Z,2.93
2018-09-16T22:41:14.502Z,3.07
2018-09-16T22:43:42.619Z,3.80
2018-09-16T22:46:10.735Z,3.70
2018-09-16T22:48:38.849Z,3.87
2018-09-16T22:51:07.207Z,3.00
2018-09-16T22:53:35.331Z,3.33
2018-09-16T22:56:03.430Z,3.43
2018-09-16T22:58:31.555Z,2.93
2018-09-16T23:00:59.649Z,3.20
2018-09-16T23:03:27.760Z,3.37
2018-09-16T23:05:55.871Z,3.23
2018-09-16T23:08:23.983Z,3.63
2018-09-16T23:10:52.089Z,3.70
2018-09-16T23:13:20.178Z,2.77
2018-09-16T23:15:48.610Z,2.70
2018-09-16T23:18:16.714Z,3.50
2018-09-16T23:20:44.794Z,3.77
2018-09-16T23:23:12.898Z,4.00
2018-09-16T23:25:40.990Z,3.30
2018-09-16T23:28:09.101Z,3.50
2018-09-16T23:30:37.211Z,3.53
2018-09-16T23:33:05.522Z,2.70
2018-09-16T23:35:33.627Z,3.10
2018-09-16T23:38:01.734Z,3.00
2018-09-16T23:40:29.818Z,2.90
2018-09-16T23:42:57.922Z,3.00
2018-09-16T23:45:26.121Z,2.93
2018-09-16T23:47:54.244Z,3.70
2018-09-16T23:50:22.338Z,3.90
2018-09-16T23:52:50.443Z,3.03
2018-09-16T23:55:18.535Z,3.40
2018-09-16T23:57:46.632Z,3.20
